Time;durP1;ratioP1;P1;durP2;ratioP2;P2;SDS_P1;SDS_P2;PMS_P1;PMS_P2;Temp;Humidity;BMP_temperature;BMP_pressure;BME280_temperature;BME280_humidity;BME280_pressure;Samples;Min_cycle;Max_cycle;Signal;HPM_P1;HPM_P2
2022/02/13 00:00:24;;;;;;;0.60;0.60;;;;;;;0.43;66.37;97485.66;29373;257;63009;-65
2022/02/13 00:00:57;;;;;;;0.60;0.60;;;;;;;0.42;66.57;97481.34;29373;202;63009;-61
2022/02/13 00:01:29;;;;;;;0.60;0.60;;;;;;;0.43;66.60;97479.50;29373;207;63005;-59
2022/02/13 00:02:00;;;;;;;0.60;0.60;;;;;;;0.43;66.35;97480.31;29373;211;63009;-68
2022/02/13 00:02:31;;;;;;;0.60;0.60;;;;;;;0.41;66.56;97485.06;29373;200;63000;-60
2022/02/13 00:03:02;;;;;;;0.60;0.60;;;;;;;0.39;66.60;97484.44;29373;247;63009;-60
2022/02/13 00:03:37;;;;;;;0.60;0.60;;;;;;;0.36;66.67;97482.22;29371;198;64004;-60
2022/02/13 00:04:09;;;;;;;0.60;0.60;;;;;;;0.36;66.73;97476.06;29371;229;64009;-65
2022/02/13 00:04:40;;;;;;;0.60;0.60;;;;;;;0.36;66.48;97479.53;29373;210;63004;-62
2022/02/13 00:05:12;;;;;;;1.98;1.87;;;;;;;0.39;66.12;97476.44;29373;199;63009;-60
2022/02/13 00:05:43;;;;;;;0.60;0.60;;;;;;;0.39;66.42;97479.13;29373;222;63004;-60
2022/02/13 00:06:17;;;;;;;0.60;0.60;;;;;;;0.39;66.57;97479.13;29373;198;63008;-66
2022/02/13 00:06:48;;;;;;;0.60;0.60;;;;;;;0.40;66.58;97475.41;29373;200;63005;-59
2022/02/13 00:07:20;;;;;;;0.60;0.60;;;;;;;0.41;66.31;97476.22;29373;254;63009;-60
2022/02/13 00:07:55;;;;;;;0.60;0.60;;;;;;;0.40;66.53;97472.75;29371;294;64005;-60
2022/02/13 00:08:26;;;;;;;0.60;0.60;;;;;;;0.41;66.49;97474.38;29373;254;63009;-61
2022/02/13 00:08:57;;;;;;;0.60;0.60;;;;;;;0.44;65.83;97471.28;29371;216;63997;-61
2022/02/13 00:09:30;;;;;;;0.60;0.60;;;;;;;0.45;65.84;97472.94;29373;204;63009;-60
2022/02/13 00:10:06;;;;;;;0.60;0.60;;;;;;;0.53;65.70;97469.19;29373;237;63005;-61
2022/02/13 00:10:37;;;;;;;0.60;0.60;;;;;;;0.59;65.16;97468.34;29373;245;63009;-61
2022/02/13 00:11:10;;;;;;;0.60;0.60;;;;;;;0.61;65.26;97464.41;29373;214;63004;-59
2022/02/13 00:11:41;;;;;;;0.65;0.65;;;;;;;0.65;64.87;97468.28;29373;204;63009;-61
2022/02/13 00:12:12;;;;;;;0.60;0.60;;;;;;;0.76;64.53;97463.28;29373;223;63004;-59
2022/02/13 00:12:45;;;;;;;0.62;0.62;;;;;;;0.81;64.44;97464.25;29373;245;63009;-69
2022/02/13 00:13:16;;;;;;;0.60;0.60;;;;;;;0.82;64.12;97457.88;29373;256;63004;-61
2022/02/13 00:13:48;;;;;;;0.60;0.60;;;;;;;0.80;64.02;97459.12;29373;214;63008;-71
2022/02/13 00:14:19;;;;;;;0.60;0.60;;;;;;;0.79;64.12;97462.84;29371;233;64005;-68
2022/02/13 00:14:50;;;;;;;0.60;0.60;;;;;;;0.76;64.46;97457.94;29373;197;63009;-62
2022/02/13 00:15:21;;;;;;;0.70;0.70;;;;;;;0.75;64.49;97456.28;29373;198;63005;-68
2022/02/13 00:15:52;;;;;;;0.88;0.88;;;;;;;0.77;64.11;97451.56;29373;277;63009;-61
2022/02/13 00:16:23;;;;;;;0.60;0.60;;;;;;;0.76;64.36;97457.94;29373;204;63000;-66
2022/02/13 00:16:55;;;;;;;0.60;0.60;;;;;;;0.78;64.19;97455.87;29371;249;64009;-59
2022/02/13 00:17:26;;;;;;;1.62;1.62;;;;;;;0.77;64.08;97454.22;29373;225;63005;-68
2022/02/13 00:17:59;;;;;;;0.60;0.60;;;;;;;0.79;64.16;97454.81;29373;203;63009;-61
2022/02/13 00:18:30;;;;;;;3.70;3.60;;;;;;;0.78;64.26;97445.19;29373;228;63004;-61
2022/02/13 00:19:02;;;;;;;0.60;0.60;;;;;;;0.79;64.02;97446.81;29373;220;63009;-60
2022/02/13 00:19:34;;;;;;;0.60;0.60;;;;;;;0.77;63.89;97448.88;29371;199;64004;-64
2022/02/13 00:20:07;;;;;;;0.60;0.60;;;;;;;0.73;64.15;97453.00;29373;215;63009;-66
2022/02/13 00:20:38;;;;;;;0.60;0.60;;;;;;;0.71;64.58;97452.41;29373;230;63004;-61
2022/02/13 00:21:10;;;;;;;0.60;0.60;;;;;;;0.66;64.64;97453.09;29373;224;63008;-60
2022/02/13 00:21:41;;;;;;;0.65;0.65;;;;;;;0.65;64.57;97457.63;29372;260;63005;-60
2022/02/13 00:22:13;;;;;;;0.90;0.90;;;;;;;0.67;64.30;97454.72;29373;197;63009;-62
2022/02/13 00:22:44;;;;;;;0.60;0.60;;;;;;;0.66;64.66;97448.56;29373;216;63005;-63
2022/02/13 00:23:16;;;;;;;0.60;0.60;;;;;;;0.63;64.42;97457.00;29373;258;63009;-67
2022/02/13 00:23:50;;;;;;;0.70;0.70;;;;;;;0.65;64.74;97454.13;29373;225;63005;-61
2022/02/13 00:24:21;;;;;;;0.60;0.60;;;;;;;0.62;64.61;97447.34;29371;213;64009;-60
2022/02/13 00:24:54;;;;;;;0.60;0.60;;;;;;;0.61;64.83;97450.25;29373;212;63008;-60
2022/02/13 00:25:26;;;;;;;0.60;0.60;;;;;;;0.58;64.98;97448.81;29373;289;63009;-61
2022/02/13 00:25:58;;;;;;;0.60;0.60;;;;;;;0.59;64.97;97453.13;29373;262;63004;-61
2022/02/13 00:26:29;;;;;;;0.60;0.60;;;;;;;0.58;64.94;97445.34;29373;222;63009;-61
2022/02/13 00:27:00;;;;;;;0.60;0.60;;;;;;;0.58;64.99;97456.00;29373;220;63004;-60
2022/02/13 00:27:31;;;;;;;0.60;0.60;;;;;;;0.57;65.11;97455.19;29373;242;63009;-61
2022/02/13 00:28:07;;;;;;;0.60;0.60;;;;;;;0.56;65.02;97452.75;29373;238;63004;-62
2022/02/13 00:28:39;;;;;;;0.60;0.60;;;;;;;0.54;64.90;97450.28;29373;202;63008;-60
2022/02/13 00:29:11;;;;;;;0.60;0.60;;;;;;;0.51;65.37;97452.56;29373;238;63004;-61
2022/02/13 00:29:45;;;;;;;0.60;0.60;;;;;;;0.52;65.30;97457.69;29371;225;64009;-61
2022/02/13 00:30:18;;;;;;;0.60;0.60;;;;;;;0.53;64.92;97453.97;29373;211;63005;-61
2022/02/13 00:30:53;;;;;;;0.60;0.60;;;;;;;0.54;65.09;97455.63;29373;197;63005;-68
2022/02/13 00:31:24;;;;;;;0.60;0.60;;;;;;;0.54;65.15;97452.94;29373;225;63005;-61
2022/02/13 00:31:55;;;;;;;0.60;0.60;;;;;;;0.50;65.44;97451.75;29371;200;63999;-63
2022/02/13 00:32:27;;;;;;;0.60;0.60;;;;;;;0.49;65.50;97452.78;29373;235;63005;-67
2022/02/13 00:32:58;;;;;;;0.60;0.60;;;;;;;0.47;65.47;97454.84;29373;203;63009;-62
2022/02/13 00:33:29;;;;;;;1.62;1.62;;;;;;;0.45;65.54;97456.09;29371;218;64004;-69
2022/02/13 00:34:00;;;;;;;0.60;0.60;;;;;;;0.42;65.55;97457.34;29373;206;63009;-67
2022/02/13 00:34:32;;;;;;;0.60;0.60;;;;;;;0.42;65.90;97456.50;29373;208;63004;-61
2022/02/13 00:35:04;;;;;;;0.60;0.60;;;;;;;0.42;65.81;97451.16;29373;224;63009;-62
2022/02/13 00:35:38;;;;;;;0.60;0.60;;;;;;;0.44;65.81;97454.44;29373;207;63004;-62
2022/02/13 00:36:09;;;;;;;0.60;0.60;;;;;;;0.43;65.59;97442.13;29373;206;63008;-60
2022/02/13 00:36:41;;;;;;;0.60;0.60;;;;;;;0.42;65.60;97457.34;29373;236;63000;-61
2022/02/13 00:37:12;;;;;;;0.60;0.60;;;;;;;0.38;66.12;97455.31;29373;248;63009;-61
2022/02/13 00:37:43;;;;;;;0.60;0.60;;;;;;;0.37;66.24;97454.47;29373;219;63011;-60
2022/02/13 00:38:15;;;;;;;1.02;1.02;;;;;;;0.36;66.35;97452.84;29373;229;63009;-61
2022/02/13 00:38:47;;;;;;;0.60;0.60;;;;;;;0.37;66.06;97459.00;29371;218;64005;-67
2022/02/13 00:39:19;;;;;;;0.60;0.60;;;;;;;0.36;66.33;97458.19;29373;198;63009;-61
2022/02/13 00:39:50;;;;;;;0.60;0.60;;;;;;;0.33;66.34;97453.31;29373;210;63005;-60
2022/02/13 00:40:23;;;;;;;0.60;0.60;;;;;;;0.33;66.20;97453.31;29373;215;63009;-59
2022/02/13 00:40:56;;;;;;;0.60;0.60;;;;;;;0.33;66.42;97453.31;29373;199;63005;-61
2022/02/13 00:41:28;;;;;;;0.60;0.60;;;;;;;0.31;66.65;97444.69;29371;248;64009;-62
2022/02/13 00:42:03;;;;;;;0.60;0.60;;;;;;;0.30;66.73;97451.06;29373;203;63004;-67
2022/02/13 00:42:34;;;;;;;0.60;0.60;;;;;;;0.29;66.73;97454.75;29371;254;64009;-60
2022/02/13 00:43:05;;;;;;;0.70;0.70;;;;;;;0.29;67.03;97460.91;29373;206;63004;-60
2022/02/13 00:43:37;;;;;;;0.60;0.60;;;;;;;0.29;66.68;97454.75;29373;208;63008;-60
2022/02/13 00:44:08;;;;;;;0.70;0.70;;;;;;;0.29;66.92;97457.44;29371;202;64004;-60
2022/02/13 00:44:40;;;;;;;0.60;0.60;;;;;;;0.30;66.58;97453.72;29373;226;63009;-59
2022/02/13 00:45:11;;;;;;;0.60;0.60;;;;;;;0.34;66.46;97449.59;29373;226;63005;-67
2022/02/13 00:45:43;;;;;;;0.60;0.60;;;;;;;0.42;66.13;97451.16;29371;212;64009;-67
2022/02/13 00:46:14;;;;;;;1.23;1.23;;;;;;;0.43;65.93;97448.28;29373;231;63005;-69
2022/02/13 00:46:47;;;;;;;0.60;0.60;;;;;;;0.41;65.94;97450.34;29373;198;63009;-65
2022/02/13 00:47:18;;;;;;;0.60;0.60;;;;;;;0.42;65.77;97451.16;29373;202;63005;-69
2022/02/13 00:47:49;;;;;;;0.60;0.60;;;;;;;0.37;65.97;97454.47;29373;209;63009;-61
2022/02/13 00:48:24;;;;;;;0.60;0.60;;;;;;;0.39;66.15;97447.06;29371;202;64004;-62
2022/02/13 00:48:55;;;;;;;0.60;0.60;;;;;;;0.39;66.09;97447.06;29373;205;63009;-66
2022/02/13 00:49:27;;;;;;;0.60;0.60;;;;;;;0.39;66.10;97452.41;29373;216;63004;-69
2022/02/13 00:49:58;;;;;;;0.52;0.52;;;;;;;0.39;66.00;97449.75;29373;214;63017;-69
2022/02/13 00:50:32;;;;;;;0.60;0.60;;;;;;;0.38;66.19;97450.78;29373;202;63004;-67
2022/02/13 00:51:03;;;;;;;0.60;0.60;;;;;;;0.38;66.59;97450.78;29373;211;63008;-66
2022/02/13 00:51:36;;;;;;;0.60;0.60;;;;;;;0.37;66.55;97459.00;29373;249;63004;-68
2022/02/13 00:52:10;;;;;;;0.70;0.70;;;;;;;0.41;66.24;97453.03;29371;306;64009;-66
2022/02/13 00:52:42;;;;;;;0.60;0.60;;;;;;;0.42;66.19;97454.66;29373;219;63005;-61
2022/02/13 00:53:13;;;;;;;0.60;0.60;;;;;;;0.43;66.09;97453.63;29373;199;63009;-68
2022/02/13 00:53:44;;;;;;;0.62;0.62;;;;;;;0.44;66.27;97452.59;29371;200;64005;-68
2022/02/13 00:54:16;;;;;;;0.60;0.60;;;;;;;0.43;65.95;97444.81;29373;225;63005;-61
2022/02/13 00:54:47;;;;;;;0.60;0.60;;;;;;;0.41;66.75;97447.69;29373;198;63005;-67
2022/02/13 00:55:19;;;;;;;0.80;0.80;;;;;;;0.45;66.22;97451.56;29373;222;63009;-69
2022/02/13 00:55:52;;;;;;;0.60;0.60;;;;;;;0.45;66.18;97446.22;29373;242;63004;-67
2022/02/13 00:56:24;;;;;;;0.55;0.55;;;;;;;0.44;66.18;97441.91;29373;242;63020;-70
2022/02/13 00:56:55;;;;;;;0.60;0.60;;;;;;;0.44;66.19;97441.91;29373;221;63004;-65
2022/02/13 00:57:27;;;;;;;0.60;0.60;;;;;;;0.44;66.15;97449.94;29373;199;63009;-61
2022/02/13 00:57:58;;;;;;;0.60;0.60;;;;;;;0.45;66.04;97446.22;29373;220;63004;-59
2022/02/13 00:58:30;;;;;;;0.60;0.60;;;;;;;0.45;65.98;97440.87;29372;262;63008;-67
2022/02/13 00:59:01;;;;;;;0.60;0.60;;;;;;;0.46;65.71;97445.19;29371;239;64005;-59
2022/02/13 00:59:32;;;;;;;0.68;0.68;;;;;;;0.45;65.73;97440.87;29373;197;63019;-67
2022/02/13 01:00:05;;;;;;;0.60;0.60;;;;;;;0.45;66.00;97440.87;29373;228;63005;-61
2022/02/13 01:00:36;;;;;;;0.60;0.60;;;;;;;0.44;65.94;97441.91;29373;272;63009;-67
2022/02/13 01:01:07;;;;;;;0.60;0.60;;;;;;;0.44;66.17;97449.94;29371;203;64005;-62
2022/02/13 01:01:38;;;;;;;0.60;0.60;;;;;;;0.45;65.92;97445.41;29373;209;63009;-68
2022/02/13 01:02:10;;;;;;;0.60;0.60;;;;;;;0.47;65.78;97446.84;29373;258;63006;-65
2022/02/13 01:02:41;;;;;;;2.08;2.05;;;;;;;0.48;65.78;97445.81;29373;262;63009;-69
2022/02/13 01:03:15;;;;;;;0.60;0.60;;;;;;;0.51;65.73;97440.03;29373;285;63004;-61
2022/02/13 01:03:47;;;;;;;0.60;0.60;;;;;;;0.52;65.48;97440.84;29372;246;63009;-68
2022/02/13 01:04:18;;;;;;;0.60;0.60;;;;;;;0.50;65.54;97438.41;29373;215;63004;-67
2022/02/13 01:04:49;;;;;;;0.77;0.77;;;;;;;0.56;65.49;97445.53;29371;206;64009;-73
2022/02/13 01:05:20;;;;;;;0.60;0.60;;;;;;;0.59;65.59;97441.63;29373;216;63004;-70
2022/02/13 01:05:51;;;;;;;0.60;0.60;;;;;;;0.60;65.27;97441.41;29373;237;63008;-67
2022/02/13 01:06:27;;;;;;;0.60;0.60;;;;;;;0.61;64.99;97435.03;29373;283;63005;-61
2022/02/13 01:06:58;;;;;;;0.60;0.60;;;;;;;0.57;64.94;97436.50;29373;214;63009;-61
2022/02/13 01:07:29;;;;;;;0.60;0.60;;;;;;;0.54;65.25;97434.25;29372;239;64005;-66
2022/02/13 01:08:02;;;;;;;0.88;0.88;;;;;;;0.54;65.35;97439.59;29372;219;64009;-61
2022/02/13 01:08:33;;;;;;;0.85;0.85;;;;;;;0.62;65.47;97436.69;29371;216;64005;-67
2022/02/13 01:09:04;;;;;;;0.60;0.60;;;;;;;0.60;65.32;97430.72;29371;222;64009;-59
2022/02/13 01:09:36;;;;;;;0.60;0.60;;;;;;;0.57;65.18;97439.16;29371;230;64005;-67
2022/02/13 01:10:08;;;;;;;0.70;0.70;;;;;;;0.56;65.57;97439.37;29373;209;63009;-69
2022/02/13 01:10:40;;;;;;;0.60;0.60;;;;;;;0.52;65.61;97436.31;29373;262;63004;-69
2022/02/13 01:11:12;;;;;;;0.60;0.60;;;;;;;0.50;65.59;97433.06;29373;235;63009;-65
2022/02/13 01:11:43;;;;;;;0.60;0.60;;;;;;;0.51;65.54;97431.19;29373;199;63004;-62
2022/02/13 01:12:15;;;;;;;0.60;0.60;;;;;;;0.49;65.61;97426.06;29373;204;63009;-60
2022/02/13 01:12:50;;;;;;;0.62;0.62;;;;;;;0.51;65.63;97440.03;29373;238;63000;-68
2022/02/13 01:13:21;;;;;;;0.70;0.70;;;;;;;0.54;65.47;97431.59;29373;226;63008;-67
2022/02/13 01:13:52;;;;;;;0.60;0.60;;;;;;;0.54;65.45;97423.59;29373;226;63005;-64
2022/02/13 01:14:23;;;;;;;1.10;1.10;;;;;;;0.52;65.81;97431.00;29373;242;63009;-69
2022/02/13 01:14:55;;;;;;;0.60;0.60;;;;;;;0.55;65.51;97424.41;29371;204;64005;-59
2022/02/13 01:15:26;;;;;;;0.60;0.60;;;;;;;0.54;65.53;97422.75;29373;219;63009;-66
2022/02/13 01:15:58;;;;;;;0.60;0.60;;;;;;;0.54;65.86;97420.91;29373;237;63010;-67
2022/02/13 01:16:29;;;;;;;0.60;0.60;;;;;;;0.52;65.56;97436.31;29373;199;63009;-67
2022/02/13 01:17:01;;;;;;;0.60;0.60;;;;;;;0.47;65.94;97428.12;29373;246;63005;-68
2022/02/13 01:17:34;;;;;;;0.60;0.60;;;;;;;0.46;65.75;97429.16;29373;203;63009;-71
2022/02/13 01:18:05;;;;;;;0.60;0.60;;;;;;;0.45;65.81;97429.38;29373;242;63004;-61
2022/02/13 01:18:36;;;;;;;0.60;0.60;;;;;;;0.46;65.99;97423.84;29371;202;64009;-61
2022/02/13 01:19:07;;;;;;;0.60;0.60;;;;;;;0.45;66.04;97424.87;29373;220;63004;-56
2022/02/13 01:19:39;;;;;;;0.60;0.60;;;;;;;0.48;65.97;97429.78;29373;220;63009;-65
2022/02/13 01:20:11;;;;;;;0.60;0.60;;;;;;;0.50;66.01;97429.56;29373;214;63004;-65
2022/02/13 01:20:42;;;;;;;0.60;0.60;;;;;;;0.46;66.05;97418.50;29373;235;63008;-67
2022/02/13 01:21:13;;;;;;;0.60;0.60;;;;;;;0.42;66.29;97427.16;29373;216;63004;-68
2022/02/13 01:21:45;;;;;;;0.60;0.60;;;;;;;0.43;66.27;97426.94;29371;233;64009;-61
2022/02/13 01:22:16;;;;;;;6.70;6.40;;;;;;;0.47;65.93;97428.12;29373;224;63005;-67
2022/02/13 01:22:47;;;;;;;0.60;0.60;;;;;;;0.51;65.73;97424.00;29373;299;63009;-67
2022/02/13 01:23:19;;;;;;;0.60;0.60;;;;;;;0.55;66.04;97425.22;29373;257;63005;-67
2022/02/13 01:23:50;;;;;;;0.60;0.60;;;;;;;0.57;65.53;97420.47;29373;209;63009;-62
2022/02/13 01:24:22;;;;;;;0.70;0.70;;;;;;;0.56;65.84;97415.34;29373;203;63005;-70
2022/02/13 01:24:56;;;;;;;0.77;0.77;;;;;;;0.58;65.64;97423.97;29373;241;63009;-61
2022/02/13 01:25:27;;;;;;;0.60;0.60;;;;;;;0.58;65.73;97414.09;29373;220;63004;-67
2022/02/13 01:25:59;;;;;;;0.57;0.57;;;;;;;0.57;65.72;97419.66;29373;208;63009;-60
2022/02/13 01:26:30;;;;;;;0.60;0.60;;;;;;;0.56;65.88;97426.84;29373;206;63004;-59
2022/02/13 01:27:01;;;;;;;0.60;0.60;;;;;;;0.56;65.92;97420.69;29371;249;64009;-65
2022/02/13 01:27:32;;;;;;;0.60;0.60;;;;;;;0.58;65.61;97413.28;29373;205;63004;-60
2022/02/13 01:28:04;;;;;;;0.90;0.88;;;;;;;0.68;65.34;97423.50;29373;237;63008;-66
2022/02/13 01:28:36;;;;;;;1.10;1.10;;;;;;;0.68;65.23;97423.50;29371;212;64004;-60
2022/02/13 01:29:08;;;;;;;0.60;0.60;;;;;;;0.69;65.15;97419.78;29373;246;63009;-69
2022/02/13 01:29:40;;;;;;;0.60;0.60;;;;;;;0.66;65.16;97421.03;29373;226;63005;-71
2022/02/13 01:30:11;;;;;;;0.60;0.60;;;;;;;0.63;65.31;97424.97;29373;221;63009;-67
2022/02/13 01:30:46;;;;;;;0.60;0.60;;;;;;;0.63;65.53;97424.13;29373;212;63005;-66
2022/02/13 01:31:18;;;;;;;0.60;0.60;;;;;;;0.59;65.68;97421.09;29373;202;63009;-66
2022/02/13 01:31:49;;;;;;;0.60;0.60;;;;;;;0.56;65.66;97421.50;29373;209;63005;-62
2022/02/13 01:32:20;;;;;;;0.60;0.60;;;;;;;0.54;65.94;97420.91;29372;252;63009;-67
2022/02/13 01:32:51;;;;;;;0.60;0.60;;;;;;;0.52;65.94;97425.66;29373;228;63005;-70
2022/02/13 01:33:23;;;;;;;0.60;0.60;;;;;;;0.56;65.92;97424.19;29373;271;63009;-66
2022/02/13 01:33:55;;;;;;;0.60;0.60;;;;;;;0.57;65.69;97423.16;29371;234;64004;-57
2022/02/13 01:34:27;;;;;;;0.70;0.70;;;;;;;0.59;65.90;97422.94;29373;207;63009;-61
2022/02/13 01:34:59;;;;;;;0.60;0.60;;;;;;;0.56;65.89;97426.03;29373;198;63004;-67
2022/02/13 01:35:30;;;;;;;0.60;0.60;;;;;;;0.52;65.87;97420.31;29373;225;63008;-66
2022/02/13 01:36:04;;;;;;;2.17;2.08;;;;;;;0.55;65.69;97417.22;29371;217;64004;-70
2022/02/13 01:36:35;;;;;;;0.60;0.60;;;;;;;0.56;66.05;97418.84;29373;213;63009;-64
2022/02/13 01:37:06;;;;;;;0.60;0.60;;;;;;;0.57;65.71;97423.16;29373;312;63005;-72
2022/02/13 01:37:39;;;;;;;0.60;0.60;;;;;;;0.55;65.94;97417.22;29373;280;63009;-61
2022/02/13 01:38:10;;;;;;;0.60;0.60;;;;;;;0.54;66.09;97423.59;29373;265;63005;-60
2022/02/13 01:38:42;;;;;;;0.60;0.60;;;;;;;0.55;66.11;97419.88;29373;228;63009;-60
2022/02/13 01:39:15;;;;;;;0.68;0.68;;;;;;;0.56;65.81;97424.19;29373;199;63005;-69
2022/02/13 01:39:47;;;;;;;0.60;0.60;;;;;;;0.53;66.01;97416.59;29371;198;64009;-61
2022/02/13 01:40:19;;;;;;;0.60;0.60;;;;;;;0.53;66.20;97413.12;29373;226;63005;-62
2022/02/13 01:40:50;;;;;;;0.60;0.60;;;;;;;0.56;66.32;97416.19;29373;197;63009;-59
2022/02/13 01:41:21;;;;;;;0.60;0.60;;;;;;;0.56;66.06;97416.19;29373;202;63004;-67
2022/02/13 01:41:52;;;;;;;0.60;0.60;;;;;;;0.59;66.02;97420.25;29373;235;63009;-62
2022/02/13 01:42:23;;;;;;;0.60;0.60;;;;;;;0.60;66.08;97411.22;29373;215;63004;-68
2022/02/13 01:42:55;;;;;;;0.60;0.60;;;;;;;0.61;65.85;97413.69;29373;206;63009;-61
2022/02/13 01:43:27;;;;;;;0.60;0.60;;;;;;;0.65;65.62;97409.53;29373;219;63004;-65
2022/02/13 01:43:58;;;;;;;0.60;0.60;;;;;;;0.63;65.56;97408.94;29373;228;63009;-61
2022/02/13 01:44:34;;;;;;;0.60;0.60;;;;;;;0.63;65.69;97411.59;29373;198;63005;-66
2022/02/13 01:45:06;;;;;;;0.60;0.60;;;;;;;0.62;66.02;97415.31;29371;214;64009;-68
2022/02/13 01:45:38;;;;;;;0.60;0.60;;;;;;;0.68;65.90;97408.28;29373;262;63005;-61
2022/02/13 01:46:09;;;;;;;0.60;0.60;;;;;;;0.67;65.78;97409.31;29373;219;63009;-62
2022/02/13 01:46:43;;;;;;;0.95;0.95;;;;;;;0.63;65.88;97406.25;29373;250;63005;-66
2022/02/13 01:47:15;;;;;;;1.30;1.30;;;;;;;0.60;66.01;97412.03;29371;230;64009;-61
2022/02/13 01:47:46;;;;;;;0.60;0.60;;;;;;;0.60;65.77;97406.69;29373;213;63005;-68
2022/02/13 01:48:18;;;;;;;0.60;0.60;;;;;;;0.63;65.77;97410.78;29373;218;63009;-61
2022/02/13 01:48:50;;;;;;;0.70;0.70;;;;;;;0.61;65.97;97413.69;29373;225;63004;-59
2022/02/13 01:49:23;;;;;;;0.60;0.60;;;;;;;0.61;65.98;97405.66;29373;204;63009;-63
2022/02/13 01:49:55;;;;;;;0.60;0.60;;;;;;;0.60;66.08;97401.34;29373;219;63010;-62
2022/02/13 01:50:27;;;;;;;0.60;0.60;;;;;;;0.59;66.23;97413.06;29371;252;64009;-69
2022/02/13 01:51:00;;;;;;;0.60;0.60;;;;;;;0.60;66.19;97411.22;29373;233;63004;-61
2022/02/13 01:51:31;;;;;;;0.60;0.60;;;;;;;0.64;66.02;97404.41;29373;215;63027;-59
2022/02/13 01:52:04;;;;;;;1.40;1.40;;;;;;;0.68;65.94;97407.47;29373;199;63005;-59
2022/02/13 01:52:37;;;;;;;0.60;0.60;;;;;;;0.68;65.66;97410.16;29373;226;63009;-66
2022/02/13 01:53:12;;;;;;;0.60;0.60;;;;;;;0.66;65.72;97411.19;29373;226;63005;-59
2022/02/13 01:53:43;;;;;;;1.80;1.05;;;;;;;0.63;66.05;97406.25;29373;202;63005;-60
2022/02/13 01:54:15;;;;;;;0.60;0.60;;;;;;;0.62;66.10;97401.97;29373;202;63005;-67
2022/02/13 01:54:46;;;;;;;0.60;0.60;;;;;;;0.61;65.86;97419.00;29373;205;63009;-58
2022/02/13 01:55:17;;;;;;;0.60;0.60;;;;;;;0.62;65.89;97406.47;29371;218;64004;-70
2022/02/13 01:55:49;;;;;;;0.60;0.60;;;;;;;0.59;66.19;97407.72;29371;249;64024;-58
2022/02/13 01:56:21;;;;;;;0.60;0.60;;;;;;;0.60;65.98;97406.69;29373;221;63004;-72
2022/02/13 01:56:52;;;;;;;0.60;0.60;;;;;;;0.63;65.93;97410.78;29373;205;63009;-62
2022/02/13 01:57:24;;;;;;;0.60;0.60;;;;;;;0.65;65.85;97409.53;29373;239;63016;-68
2022/02/13 01:57:57;;;;;;;0.60;0.60;;;;;;;0.64;65.90;97412.44;29373;249;63023;-68
2022/02/13 01:58:28;;;;;;;0.60;0.60;;;;;;;0.62;66.05;97409.97;29373;218;63005;-61
2022/02/13 01:59:00;;;;;;;0.60;0.60;;;;;;;0.60;65.91;97412.03;29373;205;63009;-67
2022/02/13 01:59:31;;;;;;;0.60;0.60;;;;;;;0.64;66.00;97405.22;29373;231;63005;-62
2022/02/13 02:00:05;;;;;;;0.60;0.60;;;;;;;0.62;66.12;97407.31;29373;208;63009;-68
2022/02/13 02:00:36;;;;;;;0.60;0.60;;;;;;;0.60;66.22;97405.88;29371;205;64005;-61
2022/02/13 02:01:09;;;;;;;0.60;0.60;;;;;;;0.59;66.55;97415.75;29373;257;63009;-68
2022/02/13 02:01:42;;;;;;;0.90;0.90;;;;;;;0.58;66.44;97413.28;29373;304;63005;-66
2022/02/13 02:02:13;;;;;;;0.60;0.60;;;;;;;0.61;66.37;97413.69;29373;322;63009;-70
2022/02/13 02:02:45;;;;;;;0.60;0.60;;;;;;;0.60;66.18;97404.03;29373;255;63004;-61
2022/02/13 02:03:16;;;;;;;0.60;0.60;;;;;;;0.62;66.05;97404.63;29373;235;63009;-60
2022/02/13 02:03:47;;;;;;;0.60;0.60;;;;;;;0.63;66.01;97408.13;29371;240;64004;-67
2022/02/13 02:04:19;;;;;;;0.60;0.60;;;;;;;0.66;66.30;97416.53;29373;244;63009;-62
2022/02/13 02:04:53;;;;;;;0.60;0.60;;;;;;;0.65;66.11;97404.19;29373;280;63004;-70
2022/02/13 02:05:25;;;;;;;0.60;0.60;;;;;;;0.62;66.20;97409.97;29373;215;63008;-67
2022/02/13 02:05:57;;;;;;;0.60;0.60;;;;;;;0.60;66.16;97408.56;29373;203;63005;-62
2022/02/13 02:06:28;;;;;;;0.60;0.60;;;;;;;0.59;66.44;97410.41;29373;237;63009;-60
2022/02/13 02:07:02;;;;;;;0.60;0.60;;;;;;;0.58;66.61;97406.09;29373;269;63005;-72
2022/02/13 02:07:34;;;;;;;0.68;0.68;;;;;;;0.60;66.75;97412.03;29373;197;63009;-61
2022/02/13 02:08:06;;;;;;;0.80;0.80;;;;;;;0.61;66.68;97403.00;29373;217;63005;-63
2022/02/13 02:08:37;;;;;;;0.60;0.60;;;;;;;0.61;66.70;97411.00;29373;248;63009;-60
2022/02/13 02:09:10;;;;;;;0.60;0.60;;;;;;;0.59;66.60;97407.72;29371;244;64005;-62
2022/02/13 02:09:50;;;;;;;0.60;0.60;;;;;;;0.58;66.84;97402.59;29373;232;63009;-68
2022/02/13 02:10:23;;;;;;;0.60;0.60;;;;;;;0.57;66.73;97407.13;29395;223;63004;-61
2022/02/13 02:10:56;;;;;;;0.60;0.60;;;;;;;0.59;66.74;97401.56;29395;255;63009;-60
2022/02/13 02:11:30;;;;;;;0.60;0.60;;;;;;;0.63;66.78;97400.94;29373;261;63004;-62
2022/02/13 02:12:07;;;;;;;0.60;0.60;;;;;;;0.64;66.84;97402.56;29373;226;63009;-61
2022/02/13 02:12:39;;;;;;;0.60;0.60;;;;;;;0.64;66.96;97396.41;29373;197;63004;-61
2022/02/13 02:13:13;;;;;;;0.60;0.60;;;;;;;0.64;66.92;97401.75;29373;202;63008;-60
2022/02/13 02:13:46;;;;;;;0.60;0.60;;;;;;;0.65;66.63;97414.88;29373;206;63005;-68
2022/02/13 02:14:18;;;;;;;1.55;1.55;;;;;;;0.70;66.86;97400.03;29371;257;64009;-62
2022/02/13 02:14:50;;;;;;;0.60;0.60;;;;;;;0.71;66.80;97396.31;29373;230;63005;-69
2022/02/13 02:15:21;;;;;;;0.60;0.60;;;;;;;0.71;66.41;97401.66;29373;232;63009;-61
2022/02/13 02:15:53;;;;;;;0.80;0.80;;;;;;;0.73;66.54;97402.25;29373;228;63005;-63
2022/02/13 02:16:24;;;;;;;0.60;0.60;;;;;;;0.73;66.34;97399.59;29373;218;63009;-62
2022/02/13 02:16:55;;;;;;;0.60;0.60;;;;;;;0.73;66.77;97399.59;29373;235;63005;-68
2022/02/13 02:17:26;;;;;;;0.60;0.60;;;;;;;0.72;66.80;97397.97;29373;204;63004;-68
2022/02/13 02:17:59;;;;;;;0.60;0.60;;;;;;;0.73;66.82;97395.06;29373;246;63004;-60
2022/02/13 02:18:33;;;;;;;0.60;0.60;;;;;;;0.73;66.73;97399.59;29373;223;63013;-59
2022/02/13 02:19:08;;;;;;;0.60;0.60;;;;;;;0.69;67.32;97409.09;29373;202;63004;-61
2022/02/13 02:19:44;;;;;;;0.60;0.60;;;;;;;0.65;67.16;97396.19;29371;196;64009;-66
2022/02/13 02:20:19;;;;;;;0.60;0.60;;;;;;;0.63;67.29;97394.75;29373;240;63004;-60
2022/02/13 02:20:54;;;;;;;1.25;1.23;;;;;;;0.61;67.40;97397.66;29371;244;64009;-61
2022/02/13 02:21:25;;;;;;;0.93;0.93;;;;;;;0.62;67.22;97396.63;29373;245;63005;-70
2022/02/13 02:21:56;;;;;;;0.60;0.60;;;;;;;0.61;67.56;97404.84;29373;293;63009;-67
2022/02/13 02:22:29;;;;;;;0.70;0.70;;;;;;;0.60;67.76;97404.03;29373;220;63005;-60
2022/02/13 02:23:00;;;;;;;0.60;0.60;;;;;;;0.58;67.51;97395.41;29373;251;63009;-59
2022/02/13 02:23:37;;;;;;;2.15;2.05;;;;;;;0.65;67.62;97393.50;29373;198;63005;-69
2022/02/13 02:24:13;;;;;;;0.60;0.60;;;;;;;0.71;67.47;97396.31;29373;224;63009;-69
2022/02/13 02:24:48;;;;;;;0.60;0.60;;;;;;;0.72;67.15;97388.09;29373;239;63005;-70
2022/02/13 02:25:20;;;;;;;0.60;0.60;;;;;;;0.73;66.92;97399.59;29373;218;63009;-63
2022/02/13 02:25:52;;;;;;;0.60;0.60;;;;;;;0.72;67.18;97397.97;29371;255;64004;-66
2022/02/13 02:26:26;;;;;;;0.60;0.60;;;;;;;0.68;67.41;97392.25;29373;202;63009;-61
2022/02/13 02:26:59;;;;;;;0.60;0.60;;;;;;;0.70;67.25;97397.34;29371;224;64004;-60
2022/02/13 02:27:30;;;;;;;0.60;0.60;;;;;;;0.71;67.43;97402.47;29373;246;63008;-62
2022/02/13 02:28:08;;;;;;;2.33;2.25;;;;;;;0.73;67.09;97391.59;29373;254;63004;-62
2022/02/13 02:28:44;;;;;;;0.60;0.60;;;;;;;0.73;67.13;97394.25;29373;242;63009;-71
2022/02/13 02:29:16;;;;;;;0.60;0.60;;;;;;;0.73;67.27;97404.94;29373;215;63016;-61
2022/02/13 02:29:51;;;;;;;0.60;0.60;;;;;;;0.73;67.49;97399.59;29373;216;63009;-61
2022/02/13 02:30:22;;;;;;;0.60;0.60;;;;;;;0.73;67.34;97396.94;29373;270;63005;-69
2022/02/13 02:30:54;;;;;;;0.60;0.60;;;;;;;0.71;67.27;97391.81;29373;215;63009;-68
2022/02/13 02:31:25;;;;;;;0.60;0.60;;;;;;;0.74;67.45;97394.03;29371;216;64005;-60
2022/02/13 02:31:57;;;;;;;0.60;0.60;;;;;;;0.77;67.46;97392.78;29373;197;63009;-60
2022/02/13 02:32:28;;;;;;;0.60;0.60;;;;;;;0.79;67.31;97399.53;29373;215;63005;-68
2022/02/13 02:33:03;;;;;;;0.60;0.60;;;;;;;0.80;66.93;97387.00;29373;212;63020;-60
2022/02/13 02:33:35;;;;;;;0.60;0.60;;;;;;;0.83;67.27;97386.56;29373;244;63004;-59
2022/02/13 02:34:06;;;;;;;0.60;0.60;;;;;;;0.84;66.82;97390.88;29373;225;63009;-60
2022/02/13 02:34:40;;;;;;;0.60;0.60;;;;;;;0.80;67.19;97389.69;29373;228;63004;-59
2022/02/13 02:35:11;;;;;;;0.60;0.60;;;;;;;0.78;67.23;97389.09;29373;218;63024;-67